Accueil
METAR-TAF:

METAR-TAF

Aéroports :

San Juan, Porto Rico, États-Unis

latitude: 18-27-24N, longitude: 066-05-54W, altitude: 3 m

Observation

Le bulletin a été fait il y a 40 minutes, à 18:48 UTC
Vent 12 kt de est
Température 28°C
Humidité 79%
Pression 1015 hPa
Visibilité: 16.1 km
Nuages épars à une hauteur de 3000 ft
Nuages épars à une hauteur de 6000 ft

METAR: TJIG 061848Z 08012KT 10SM SCT030 SCT060 28/24 A2997

Heure: 15:28 (19:28 UTC)


TAF: absent

Observations et prévisions météorologiques de plus de 4000 aéroports (messages METAR et TAF).

Les stations disponibles sont représentées par des disques jaunes et rouges sur la carte.

Passer la souris dessus pour voir le nom de la station.

Cliquer dessus pour voir les observations et prévisions météorologiques.

Pour changer de carte: cliquez sur les boutons verts avec une croix noire pour zoomer, sur le bouton vert avec un tiret pour effectuer un zoom arrière, ou sur les flèches vertes pour les cartes adjacentes.


METAR-TAF: